Time;durP1;ratioP1;P1;durP2;ratioP2;P2;SDS_P1;SDS_P2;PMS_P1;PMS_P2;Temp;Humidity;BMP_temperature;BMP_pressure;BME280_temperature;BME280_humidity;BME280_pressure;Samples;Min_cycle;Max_cycle;Signal;HPM_P1;HPM_P2
2023/04/25 00:01:51;;;;;;;28.63;13.95;;;15.10;99.90;;;;;;5111861;28;20031;-72
2023/04/25 00:04:17;;;;;;;22.45;12.68;;;15.10;99.90;;;;;;5111762;28;20568;-73
2023/04/25 00:06:43;;;;;;;25.67;11.77;;;15.00;99.90;;;;;;5092942;28;20083;-74
2023/04/25 00:09:10;;;;;;;24.57;11.23;;;14.90;99.90;;;;;;5090587;28;20254;-74
2023/04/25 00:11:37;;;;;;;26.20;12.38;;;14.70;99.90;;;;;;5090015;28;20058;-74
2023/04/25 00:14:06;;;;;;;26.75;12.02;;;14.70;99.90;;;;;;5090559;28;20055;-74
2023/04/25 00:16:34;;;;;;;19.58;11.68;;;14.70;99.90;;;;;;5090596;28;20040;-74
2023/04/25 00:19:02;;;;;;;25.33;11.90;;;14.70;99.90;;;;;;5090564;28;20016;-73
2023/04/25 00:21:31;;;;;;;27.85;12.02;;;14.70;99.90;;;;;;5090552;28;20473;-73
2023/04/25 00:23:57;;;;;;;23.20;12.93;;;14.70;99.90;;;;;;5090324;28;20043;-73
2023/04/25 00:26:23;;;;;;;26.80;11.65;;;14.70;99.90;;;;;;5090689;28;20421;-73
2023/04/25 00:28:49;;;;;;;29.00;12.97;;;14.60;99.90;;;;;;5090715;28;20485;-74
2023/04/25 00:31:15;;;;;;;23.50;11.87;;;14.60;99.90;;;;;;5094000;28;20108;-74
2023/04/25 00:33:44;;;;;;;19.73;12.57;;;14.60;99.90;;;;;;5110348;28;20030;-73
2023/04/25 00:36:11;;;;;;;24.73;12.02;;;14.50;99.90;;;;;;5110729;28;20084;-73
2023/04/25 00:38:38;;;;;;;25.10;12.95;;;14.50;99.90;;;;;;5110679;28;20047;-74
2023/04/25 00:41:05;;;;;;;;;;;14.50;99.90;;;;;;5110964;28;20031;-70
2023/04/25 00:43:33;;;;;;;21.83;12.77;;;14.50;99.90;;;;;;5091806;28;19916;-74
2023/04/25 00:46:14;;;;;;;24.48;12.43;;;14.50;99.90;;;;;;5101705;28;20135;-71
2023/04/25 00:48:40;;;;;;;25.20;12.70;;;14.40;99.90;;;;;;5115013;28;20031;-74
2023/04/25 00:51:06;;;;;;;29.57;14.07;;;14.40;99.90;;;;;;5114702;28;20047;-74
2023/04/25 00:53:33;;;;;;;23.83;13.40;;;14.30;99.90;;;;;;5114757;28;20259;-73
2023/04/25 00:55:59;;;;;;;24.60;13.35;;;14.30;99.90;;;;;;5114521;28;20476;-74
2023/04/25 00:58:25;;;;;;;29.38;13.73;;;14.30;99.90;;;;;;5114820;28;20027;-73
2023/04/25 01:00:52;;;;;;;24.10;13.33;;;14.30;99.90;;;;;;5114701;28;20340;-74
2023/04/25 01:03:21;;;;;;;31.88;13.27;;;14.30;99.90;;;;;;5114814;28;20285;-74
2023/04/25 01:05:48;;;;;;;24.90;12.50;;;14.30;99.90;;;;;;5114512;28;20028;-74
2023/04/25 01:08:15;;;;;;;23.42;13.40;;;14.30;99.90;;;;;;5113561;28;20023;-73
2023/04/25 01:10:41;;;;;;;27.80;12.88;;;14.30;99.90;;;;;;5112754;28;20028;-73
2023/04/25 01:13:08;;;;;;;22.10;13.30;;;14.30;99.90;;;;;;5114847;28;20058;-72
2023/04/25 01:15:35;;;;;;;22.67;11.73;;;14.30;99.90;;;;;;5114546;28;20036;-74
2023/04/25 01:18:02;;;;;;;30.40;12.88;;;14.30;99.90;;;;;;5114463;28;20024;-74
2023/04/25 01:20:29;;;;;;;23.80;13.75;;;14.20;99.90;;;;;;5114707;28;20050;-72
2023/04/25 01:22:55;;;;;;;32.10;14.35;;;14.20;99.90;;;;;;5114131;28;20020;-73
2023/04/25 01:25:22;;;;;;;28.42;12.57;;;14.20;99.90;;;;;;5114190;28;20015;-74
2023/04/25 01:27:48;;;;;;;25.55;13.48;;;14.30;99.90;;;;;;5113925;28;20111;-74
2023/04/25 01:30:15;;;;;;;29.55;13.20;;;14.30;99.90;;;;;;5112905;28;20065;-74
2023/04/25 01:32:42;;;;;;;28.20;13.07;;;14.30;99.90;;;;;;5113980;28;20087;-74
2023/04/25 01:35:11;;;;;;;22.95;12.50;;;14.30;99.90;;;;;;5116093;28;20020;-74
2023/04/25 01:37:38;;;;;;;24.85;13.63;;;14.20;99.90;;;;;;5113904;28;20392;-74
2023/04/25 01:40:05;;;;;;;24.25;14.02;;;14.30;99.90;;;;;;5113524;28;20019;-74
2023/04/25 01:42:33;;;;;;;21.48;13.30;;;14.20;99.90;;;;;;5113037;28;20027;-73
2023/04/25 01:45:00;;;;;;;29.63;13.90;;;14.20;99.90;;;;;;5113916;28;20099;-74
2023/04/25 01:47:26;;;;;;;33.15;15.20;;;14.20;99.90;;;;;;5113558;28;20031;-74
2023/04/25 01:49:52;;;;;;;29.43;13.10;;;14.20;99.90;;;;;;5111929;28;20023;-75
2023/04/25 01:52:18;;;;;;;26.30;12.33;;;14.20;99.90;;;;;;5113479;28;20265;-73
2023/04/25 01:54:44;;;;;;;24.97;11.50;;;14.20;99.90;;;;;;5112795;28;20023;-73
2023/04/25 01:57:11;;;;;;;22.75;11.30;;;14.20;99.90;;;;;;5113805;28;20103;-73
2023/04/25 01:59:38;;;;;;;22.52;10.57;;;14.20;99.90;;;;;;5113742;28;20023;-73
2023/04/25 02:02:04;;;;;;;20.73;10.45;;;14.20;99.90;;;;;;5112011;28;20102;-72
2023/04/25 02:04:30;;;;;;;16.27;9.50;;;14.20;99.90;;;;;;5113658;28;20027;-73
2023/04/25 02:06:56;;;;;;;18.23;9.85;;;14.20;99.90;;;;;;5113267;27;20468;-74
2023/04/25 02:09:23;;;;;;;20.17;9.23;;;14.20;99.90;;;;;;5113202;28;20028;-73
2023/04/25 02:11:49;;;;;;;20.67;9.48;;;14.30;99.90;;;;;;5113170;28;20278;-73
2023/04/25 02:14:15;;;;;;;16.15;9.65;;;14.30;99.90;;;;;;5113262;28;20039;-74
2023/04/25 02:16:43;;;;;;;24.08;10.43;;;14.20;99.90;;;;;;5113202;28;20099;-74
2023/04/25 02:19:10;;;;;;;17.15;8.90;;;14.20;99.90;;;;;;5112807;28;20027;-74
2023/04/25 02:21:36;;;;;;;16.25;9.10;;;14.10;99.90;;;;;;5113349;28;20036;-74
2023/04/25 02:24:03;;;;;;;15.30;7.28;;;14.20;99.90;;;;;;5112864;28;20038;-73
2023/04/25 02:26:29;;;;;;;;;;;14.20;99.90;;;;;;5113492;28;20090;-73
2023/04/25 02:28:57;;;;;;;12.13;5.88;;;14.30;99.90;;;;;;5112848;28;20351;-74
2023/04/25 02:31:23;;;;;;;6.70;4.40;;;14.40;99.90;;;;;;5111263;28;20032;-74
2023/04/25 02:33:49;;;;;;;12.27;4.55;;;14.60;99.90;;;;;;5112880;28;20106;-74
2023/04/25 02:36:15;;;;;;;10.93;4.25;;;14.70;99.90;;;;;;5112744;28;20138;-73
2023/04/25 02:38:41;;;;;;;9.18;3.90;;;14.80;99.90;;;;;;5112613;28;20027;-74
2023/04/25 02:41:07;;;;;;;10.67;4.20;;;14.80;99.90;;;;;;5112363;28;20023;-74
2023/04/25 02:43:33;;;;;;;9.37;4.30;;;14.80;99.90;;;;;;5112389;28;20122;-73
2023/04/25 02:46:00;;;;;;;7.90;3.43;;;14.80;99.90;;;;;;5112851;28;20265;-74
2023/04/25 02:48:26;;;;;;;10.18;3.85;;;14.80;99.90;;;;;;5113070;28;20072;-73
2023/04/25 02:50:52;;;;;;;11.63;3.70;;;14.80;99.90;;;;;;5112677;28;20107;-73
2023/04/25 02:53:18;;;;;;;11.17;3.30;;;14.90;99.90;;;;;;5112435;28;20023;-74
2023/04/25 02:55:44;;;;;;;8.50;3.23;;;15.00;99.90;;;;;;5112827;28;20080;-75
2023/04/25 02:58:10;;;;;;;10.43;3.10;;;15.00;99.90;;;;;;5110894;28;20072;-74
2023/04/25 03:00:36;;;;;;;10.03;3.20;;;15.00;99.90;;;;;;5112524;28;20258;-74
2023/04/25 03:03:02;;;;;;;10.23;3.40;;;15.10;99.90;;;;;;5112259;28;20043;-74
2023/04/25 03:05:28;;;;;;;6.07;3.00;;;15.00;99.90;;;;;;5111552;28;20032;-73
2023/04/25 03:07:54;;;;;;;5.77;3.00;;;15.00;99.90;;;;;;5112051;28;20295;-73
2023/04/25 03:10:20;;;;;;;8.90;3.50;;;15.00;99.90;;;;;;5111970;28;20054;-73
2023/04/25 03:12:46;;;;;;;10.97;3.30;;;14.90;99.90;;;;;;5112047;28;20253;-73
2023/04/25 03:15:12;;;;;;;9.37;3.70;;;15.00;99.90;;;;;;5111934;28;20028;-74
2023/04/25 03:17:38;;;;;;;8.93;3.10;;;14.90;99.90;;;;;;5112149;28;20114;-74
2023/04/25 03:20:05;;;;;;;6.77;3.10;;;14.90;99.90;;;;;;5112161;28;20079;-74
2023/04/25 03:22:31;;;;;;;;;;;14.90;99.90;;;;;;5112576;28;20038;-74
2023/04/25 03:24:57;;;;;;;6.75;3.17;;;14.90;99.90;;;;;;5111629;28;19904;-74
2023/04/25 03:27:23;;;;;;;8.77;3.50;;;14.90;99.90;;;;;;5112155;28;20085;-74
2023/04/25 03:29:49;;;;;;;8.37;3.33;;;14.80;99.90;;;;;;5111802;28;20101;-74
2023/04/25 03:32:15;;;;;;;11.90;3.73;;;14.80;99.90;;;;;;5111686;28;20092;-74
2023/04/25 03:34:41;;;;;;;6.47;3.27;;;14.80;99.90;;;;;;5111640;28;20032;-73
2023/04/25 03:37:07;;;;;;;9.77;4.07;;;14.80;99.90;;;;;;5111429;28;20063;-74
2023/04/25 03:39:33;;;;;;;9.88;3.88;;;14.80;99.90;;;;;;5111353;28;20329;-73
2023/04/25 03:41:59;;;;;;;14.23;4.07;;;14.70;99.90;;;;;;5110131;28;20027;-72
2023/04/25 03:44:25;;;;;;;10.32;4.10;;;14.70;99.90;;;;;;5111429;28;20086;-74
2023/04/25 03:46:51;;;;;;;10.47;3.87;;;14.70;99.90;;;;;;5112458;28;20027;-73
2023/04/25 03:49:17;;;;;;;8.47;3.80;;;14.70;99.90;;;;;;5109822;28;20027;-73
2023/04/25 03:51:43;;;;;;;8.93;3.60;;;14.60;99.90;;;;;;5111382;28;20778;-73
2023/04/25 03:54:09;;;;;;;13.23;3.73;;;14.60;99.90;;;;;;5111410;28;20031;-73
2023/04/25 03:56:36;;;;;;;10.98;3.40;;;14.60;99.90;;;;;;5109456;28;20368;-72
2023/04/25 03:59:02;;;;;;;7.73;3.67;;;14.60;99.90;;;;;;5111283;28;20027;-72
2023/04/25 04:01:28;;;;;;;13.57;4.25;;;14.50;99.90;;;;;;5110980;28;20111;-71
2023/04/25 04:03:54;;;;;;;9.63;4.20;;;14.30;99.90;;;;;;5111181;28;20027;-72
2023/04/25 04:06:20;;;;;;;12.00;4.40;;;14.30;99.90;;;;;;5111186;28;20032;-72
2023/04/25 04:08:46;;;;;;;13.70;4.60;;;14.30;99.90;;;;;;5110878;28;20289;-72
2023/04/25 04:11:12;;;;;;;9.77;4.85;;;14.30;99.90;;;;;;5110531;28;20032;-72
2023/04/25 04:13:38;;;;;;;9.10;4.57;;;14.30;99.90;;;;;;5110962;28;20122;-73
2023/04/25 04:16:05;;;;;;;10.70;5.40;;;14.30;99.90;;;;;;5110714;28;20265;-73
2023/04/25 04:18:33;;;;;;;15.85;6.05;;;14.40;99.90;;;;;;5108867;28;20520;-73
2023/04/25 04:20:59;;;;;;;14.05;5.40;;;14.40;99.90;;;;;;5110634;28;20471;-72
2023/04/25 04:23:27;;;;;;;14.27;5.97;;;14.40;99.90;;;;;;5109249;28;20024;-73
2023/04/25 04:25:54;;;;;;;20.00;5.63;;;14.40;99.90;;;;;;5109064;28;20063;-72
2023/04/25 04:28:20;;;;;;;;;;;14.30;99.90;;;;;;5111408;28;20022;-72
2023/04/25 04:30:46;;;;;;;14.30;5.45;;;14.30;99.90;;;;;;5110545;28;19937;-73
2023/04/25 04:33:14;;;;;;;11.40;5.72;;;14.20;99.90;;;;;;5110708;28;20416;-73
2023/04/25 04:35:41;;;;;;;10.02;5.50;;;14.10;99.90;;;;;;5110310;28;20044;-72
2023/04/25 04:38:07;;;;;;;13.90;5.68;;;14.00;99.90;;;;;;5110483;28;20035;-73
2023/04/25 04:40:35;;;;;;;13.15;6.28;;;14.00;99.90;;;;;;5108977;28;20113;-73
2023/04/25 04:43:01;;;;;;;15.57;6.05;;;14.00;99.90;;;;;;5110427;28;20440;-74
2023/04/25 04:45:28;;;;;;;11.43;6.03;;;14.00;99.90;;;;;;5110512;28;20024;-74
2023/04/25 04:47:55;;;;;;;14.70;5.90;;;14.00;99.90;;;;;;5110578;28;20459;-73
2023/04/25 04:50:21;;;;;;;12.50;5.85;;;14.20;99.90;;;;;;5110564;28;20050;-73
2023/04/25 04:52:47;;;;;;;15.35;6.60;;;14.30;99.90;;;;;;5110710;28;20047;-74
2023/04/25 04:55:13;;;;;;;11.90;5.87;;;14.40;99.90;;;;;;5110434;28;20379;-74
2023/04/25 04:57:39;;;;;;;15.47;5.87;;;14.50;99.90;;;;;;5110488;28;20416;-74
2023/04/25 05:00:10;;;;;;;12.33;6.07;;;14.50;99.90;;;;;;5110758;28;20031;-74
2023/04/25 05:02:40;;;;;;;13.05;5.80;;;14.60;99.90;;;;;;5110583;28;20631;-74
2023/04/25 05:05:06;;;;;;;12.77;5.88;;;14.70;99.90;;;;;;5110540;28;20100;-73
2023/04/25 05:07:32;;;;;;;14.05;6.00;;;14.70;99.90;;;;;;5110207;28;20407;-74
2023/04/25 05:09:58;;;;;;;12.80;5.70;;;14.70;99.90;;;;;;5110353;28;20124;-74
2023/04/25 05:12:24;;;;;;;15.33;5.80;;;14.90;99.90;;;;;;5110518;28;20024;-74
2023/04/25 05:14:50;;;;;;;13.10;4.80;;;16.00;99.90;;;;;;5110478;28;20257;-74
2023/04/25 05:17:16;;;;;;;12.67;4.20;;;18.30;99.90;;;;;;5106957;28;20032;-73
2023/04/25 05:19:48;;;;;;;9.77;3.13;;;19.60;99.90;;;;;;5097896;28;20330;-70
2023/04/25 05:22:14;;;;;;;11.45;3.75;;;21.30;99.90;;;;;;5099031;28;20023;-73
2023/04/25 05:24:41;;;;;;;13.63;3.78;;;23.40;99.90;;;;;;5098716;28;20059;-71
2023/04/25 05:27:10;;;;;;;14.27;3.42;;;24.70;99.90;;;;;;5100167;28;20387;-71
2023/04/25 05:29:37;;;;;;;10.30;3.30;;;25.90;99.90;;;;;;5101281;28;20040;-73
2023/04/25 05:32:09;;;;;;;10.43;3.13;;;25.10;99.90;;;;;;5101586;28;20088;-71
2023/04/25 05:34:35;;;;;;;11.65;3.13;;;26.10;99.90;;;;;;5103291;28;20137;-75
2023/04/25 05:37:01;;;;;;;10.88;3.47;;;27.50;99.90;;;;;;5102242;28;20063;-76
2023/04/25 05:39:27;;;;;;;8.35;2.63;;;28.80;99.90;;;;;;5093361;28;20036;-74
2023/04/25 05:41:53;;;;;;;8.50;3.10;;;29.70;99.90;;;;;;5093505;28;20031;-75
2023/04/25 05:44:19;;;;;;;9.32;2.83;;;31.00;99.90;;;;;;5093319;28;20433;-75
2023/04/25 05:46:45;;;;;;;;;;;31.50;99.90;;;;;;5111625;28;20066;-75
2023/04/25 05:49:11;;;;;;;8.60;2.72;;;32.00;99.90;;;;;;5114184;28;19908;-74
2023/04/25 05:51:37;;;;;;;;;;;31.20;99.90;;;;;;5115048;28;20024;-75
2023/04/25 05:54:03;;;;;;;13.38;3.40;;;30.60;99.90;;;;;;5112408;28;20216;-75
2023/04/25 05:56:30;;;;;;;12.32;3.00;;;30.90;99.90;;;;;;5113413;28;20027;-75
2023/04/25 05:58:56;;;;;;;10.80;2.97;;;31.10;99.90;;;;;;5113636;27;20446;-76
2023/04/25 06:01:22;;;;;;;;;;;31.10;99.90;;;;;;5113970;28;20035;-75
2023/04/25 06:03:49;;;;;;;12.85;2.80;;;29.50;99.90;;;;;;5113785;28;19907;-74
2023/04/25 06:06:15;;;;;;;9.02;2.47;;;28.50;99.90;;;;;;5113606;28;20031;-76
2023/04/25 06:08:41;;;;;;;;;;;27.80;99.90;;;;;;5113802;28;20031;-76
2023/04/25 06:11:07;;;;;;;11.10;4.00;;;27.00;99.90;;;;;;5113274;28;19904;-75
2023/04/25 06:13:33;;;;;;;11.80;4.10;;;27.00;99.90;;;;;;5113646;28;20019;-75
2023/04/25 06:15:59;;;;;;;;;;;27.60;99.90;;;;;;5113388;28;20132;-76
2023/04/25 06:18:26;;;;;;;9.35;2.78;;;26.80;99.90;;;;;;5113056;28;20220;-80
2023/04/25 06:20:52;;;;;;;7.85;2.80;;;25.10;99.90;;;;;;5113380;28;20062;-72
2023/04/25 06:23:18;;;;;;;8.70;3.15;;;25.00;99.90;;;;;;5113666;28;20043;-73
2023/04/25 06:25:44;;;;;;;10.90;3.22;;;24.30;99.90;;;;;;5113240;28;20026;-72
2023/04/25 06:28:10;;;;;;;13.48;3.60;;;23.60;99.90;;;;;;5111527;28;20385;-73
2023/04/25 06:30:36;;;;;;;12.20;3.90;;;23.10;99.90;;;;;;5112990;28;20016;-72
2023/04/25 06:33:02;;;;;;;13.32;3.53;;;22.20;99.90;;;;;;5113455;28;20077;-73
2023/04/25 06:35:28;;;;;;;12.18;3.22;;;22.00;99.90;;;;;;5112973;28;20467;-73
2023/04/25 06:37:54;;;;;;;10.18;3.65;;;22.50;99.90;;;;;;5113010;28;20045;-74
2023/04/25 06:40:20;;;;;;;11.95;3.53;;;23.00;99.90;;;;;;5112745;28;20031;-73
2023/04/25 06:42:46;;;;;;;11.85;3.90;;;23.70;99.90;;;;;;5110997;28;20088;-71
2023/04/25 06:45:12;;;;;;;10.68;3.50;;;24.30;99.90;;;;;;5113068;28;20068;-72
2023/04/25 06:47:38;;;;;;;12.32;3.60;;;24.70;99.90;;;;;;5112739;28;20027;-72
2023/04/25 06:50:05;;;;;;;14.25;3.67;;;26.20;99.90;;;;;;5112557;28;20026;-69
2023/04/25 06:52:31;;;;;;;9.23;3.15;;;27.30;99.90;;;;;;5113099;28;20157;-70
2023/04/25 06:54:58;;;;;;;13.05;3.45;;;26.70;99.90;;;;;;5109411;28;20028;-70
2023/04/25 06:57:24;;;;;;;16.15;4.03;;;26.30;99.90;;;;;;5096982;28;20046;-70
2023/04/25 06:59:50;;;;;;;12.57;3.55;;;25.80;99.90;;;;;;5095179;28;20024;-70
2023/04/25 07:02:16;;;;;;;11.75;3.25;;;26.50;99.90;;;;;;5101040;28;20100;-73
2023/04/25 07:04:42;;;;;;;15.57;3.30;;;26.40;99.90;;;;;;5092164;28;20023;-72
2023/04/25 07:07:08;;;;;;;15.65;3.35;;;26.80;99.90;;;;;;5092247;28;20413;-72
2023/04/25 07:09:34;;;;;;;11.48;2.70;;;27.80;99.90;;;;;;5094220;28;20028;-72
2023/04/25 07:12:03;;;;;;;12.75;2.67;;;27.70;99.90;;;;;;5093208;28;20086;-73
2023/04/25 07:14:29;;;;;;;11.93;2.63;;;28.90;99.90;;;;;;5091841;28;20138;-73
2023/04/25 07:16:56;;;;;;;9.50;2.45;;;30.40;99.90;;;;;;5091551;28;20039;-74
2023/04/25 07:19:26;;;;;;;9.43;2.20;;;30.60;99.90;;;;;;5091642;28;20020;-74
2023/04/25 07:21:52;;;;;;;9.68;2.60;;;30.70;99.90;;;;;;5091892;28;20028;-74
2023/04/25 07:24:18;;;;;;;11.52;2.90;;;30.40;99.90;;;;;;5091689;28;20047;-73
2023/04/25 07:26:45;;;;;;;8.57;2.60;;;30.30;99.90;;;;;;5090953;28;20452;-74
2023/04/25 07:29:11;;;;;;;12.70;3.00;;;29.30;99.90;;;;;;5091269;28;20089;-73
2023/04/25 07:31:40;;;;;;;7.47;2.40;;;28.40;99.90;;;;;;5098424;28;20034;-72
2023/04/25 07:34:06;;;;;;;10.27;2.72;;;28.30;99.90;;;;;;5111392;28;20026;-73
2023/04/25 07:36:32;;;;;;;10.23;2.75;;;27.90;99.90;;;;;;5111390;28;20059;-74
2023/04/25 07:38:58;;;;;;;8.60;2.67;;;27.40;99.90;;;;;;5111683;28;20416;-73
2023/04/25 07:41:24;;;;;;;7.10;2.65;;;26.00;99.90;;;;;;5111767;28;20324;-74
2023/04/25 07:43:50;;;;;;;10.25;2.70;;;25.70;99.90;;;;;;5111543;28;20474;-73
2023/04/25 07:46:16;;;;;;;8.77;2.42;;;25.50;99.90;;;;;;5110573;28;20462;-74
2023/04/25 07:48:45;;;;;;;9.88;2.00;;;25.50;99.90;;;;;;5111301;28;20051;-74
2023/04/25 07:51:11;;;;;;;9.40;2.42;;;25.10;99.90;;;;;;5111247;28;20024;-73
2023/04/25 07:53:38;;;;;;;11.20;2.67;;;25.00;99.90;;;;;;5111128;28;20024;-71
2023/04/25 07:56:04;;;;;;;9.30;2.15;;;25.10;99.90;;;;;;5111182;28;20023;-75
2023/04/25 07:58:30;;;;;;;8.00;2.08;;;24.10;99.90;;;;;;5111513;28;20467;-74
2023/04/25 08:00:56;;;;;;;7.80;2.03;;;24.10;99.90;;;;;;5111254;28;20031;-74
2023/04/25 08:03:22;;;;;;;7.60;2.33;;;24.40;99.90;;;;;;5111364;28;20027;-74
2023/04/25 08:05:48;;;;;;;6.22;2.42;;;24.80;99.90;;;;;;5111186;28;20023;-74
2023/04/25 08:08:14;;;;;;;5.30;1.90;;;24.90;99.90;;;;;;5111482;28;20107;-73
2023/04/25 08:10:40;;;;;;;5.20;1.77;;;24.90;99.90;;;;;;5109505;28;20109;-74
2023/04/25 08:13:06;;;;;;;10.75;2.22;;;24.90;99.90;;;;;;5111404;28;20110;-75
2023/04/25 08:15:33;;;;;;;16.48;2.83;;;25.10;99.90;;;;;;5111089;28;20038;-73
2023/04/25 08:17:59;;;;;;;7.18;1.83;;;24.90;99.90;;;;;;5109801;28;20035;-74
2023/04/25 08:20:25;;;;;;;;;;;25.20;99.90;;;;;;5110265;28;20034;-73
2023/04/25 08:22:51;;;;;;;;;;;25.20;99.90;;;;;;5110445;28;20006;-73
2023/04/25 08:25:17;;;;;;;;;;;25.50;99.90;;;;;;5111646;28;19994;-74
2023/04/25 08:27:43;;;;;;;5.32;1.92;;;25.50;99.90;;;;;;5111276;28;19952;-74
2023/04/25 08:30:09;;;;;;;10.95;3.50;;;25.70;99.90;;;;;;5110968;28;20481;-74
2023/04/25 08:32:37;;;;;;;15.20;4.07;;;25.90;99.90;;;;;;5111255;28;20016;-69
2023/04/25 08:35:04;;;;;;;17.00;3.80;;;25.40;99.90;;;;;;5111488;28;20039;-72
2023/04/25 08:37:30;;;;;;;15.70;3.75;;;25.70;99.90;;;;;;5111358;28;20112;-72
2023/04/25 08:39:56;;;;;;;20.00;4.43;;;25.40;99.90;;;;;;5111046;28;20030;-73
2023/04/25 08:42:23;;;;;;;12.77;3.58;;;25.70;99.90;;;;;;5111217;28;20504;-73
2023/04/25 08:44:49;;;;;;;14.63;3.63;;;25.80;99.90;;;;;;5110895;28;20047;-72
2023/04/25 08:47:17;;;;;;;18.75;4.05;;;25.60;99.90;;;;;;5111307;28;20176;-73
2023/04/25 08:49:46;;;;;;;13.20;3.88;;;25.40;99.90;;;;;;5111056;28;20480;-72
2023/04/25 08:52:13;;;;;;;13.95;3.90;;;25.40;99.90;;;;;;5110214;28;20046;-73
2023/04/25 08:54:44;;;;;;;12.15;3.63;;;25.20;99.90;;;;;;5110489;28;20072;-72
2023/04/25 08:57:23;;;;;;;16.08;3.78;;;25.00;99.90;;;;;;5110780;28;20095;-72
2023/04/25 08:59:50;;;;;;;14.75;3.47;;;25.00;99.90;;;;;;5110488;28;20023;-72
2023/04/25 09:02:18;;;;;;;19.90;4.00;;;24.80;99.90;;;;;;5109569;28;20478;-73
2023/04/25 09:04:45;;;;;;;16.48;4.07;;;24.70;99.90;;;;;;5111406;28;20377;-73
2023/04/25 09:07:15;;;;;;;;;;;24.90;99.90;;;;;;5113846;28;20445;-69
2023/04/25 09:09:41;;;;;;;11.43;3.65;;;24.60;99.90;;;;;;5113582;28;19953;-71
2023/04/25 09:12:08;;;;;;;13.00;3.40;;;24.90;99.90;;;;;;5113385;28;20388;-73
2023/04/25 09:14:34;;;;;;;15.73;3.63;;;24.70;99.90;;;;;;5113307;28;20020;-72
2023/04/25 09:17:03;;;;;;;14.35;3.13;;;24.70;99.90;;;;;;5113514;28;20035;-73
2023/04/25 09:19:39;;;;;;;12.20;3.10;;;24.90;99.90;;;;;;5113610;28;20012;-74
2023/04/25 09:22:07;;;;;;;14.18;3.45;;;24.60;99.90;;;;;;5114302;27;20110;-73
2023/04/25 09:24:49;;;;;;;12.23;3.63;;;24.80;99.90;;;;;;5113524;27;20068;-73
2023/04/25 09:27:22;;;;;;;14.13;3.60;;;24.70;99.90;;;;;;5113977;28;20043;-74
2023/04/25 09:29:55;;;;;;;14.63;3.75;;;24.80;99.90;;;;;;5113856;28;20016;-74
2023/04/25 09:32:25;;;;;;;15.77;3.92;;;25.10;99.90;;;;;;5113745;28;20145;-73
2023/04/25 09:34:56;;;;;;;16.10;4.10;;;25.10;99.90;;;;;;5114053;28;20103;-73
2023/04/25 09:37:24;;;;;;;12.35;3.00;;;24.90;99.90;;;;;;5114089;28;20050;-72
2023/04/25 09:39:53;;;;;;;12.98;2.55;;;24.50;99.90;;;;;;5113540;28;20019;-73
2023/04/25 09:42:23;;;;;;;7.93;2.47;;;24.50;99.90;;;;;;5111980;28;20023;-73
2023/04/25 09:44:52;;;;;;;8.38;2.72;;;24.50;99.90;;;;;;5113440;28;20502;-73
2023/04/25 09:47:21;;;;;;;13.77;2.80;;;24.20;99.90;;;;;;5113504;28;20084;-73
2023/04/25 09:49:47;;;;;;;9.45;1.75;;;24.00;99.90;;;;;;5113569;28;20020;-75
2023/04/25 09:52:18;;;;;;;6.97;2.03;;;24.50;99.90;;;;;;5113895;28;20028;-75
2023/04/25 09:54:45;;;;;;;7.43;2.10;;;24.40;99.90;;;;;;5113966;28;20095;-74
2023/04/25 09:57:16;;;;;;;7.90;2.33;;;24.50;99.90;;;;;;5113123;28;20193;-75
2023/04/25 09:59:50;;;;;;;10.20;2.10;;;24.70;99.90;;;;;;5113336;28;20015;-73
2023/04/25 10:02:28;;;;;;;7.00;2.00;;;24.70;99.90;;;;;;5115055;28;20030;-72
2023/04/25 10:04:55;;;;;;;10.00;2.20;;;24.30;99.90;;;;;;5113455;28;20059;-71
2023/04/25 10:07:30;;;;;;;10.27;2.20;;;24.30;99.90;;;;;;5113367;28;20076;-71
2023/04/25 10:10:03;;;;;;;7.18;2.00;;;24.80;99.90;;;;;;5112799;27;20035;-73
2023/04/25 10:12:32;;;;;;;9.18;2.53;;;24.70;99.90;;;;;;5112953;28;20027;-72
2023/04/25 10:15:00;;;;;;;14.57;2.53;;;24.50;99.90;;;;;;5112416;28;20023;-77
2023/04/25 10:17:29;;;;;;;10.10;2.33;;;24.40;99.90;;;;;;5113065;28;20094;-75
2023/04/25 10:19:56;;;;;;;13.10;2.92;;;24.60;99.90;;;;;;5113551;28;20496;-75
2023/04/25 10:22:41;;;;;;;11.80;2.92;;;24.10;99.90;;;;;;5112745;28;20027;-73
2023/04/25 10:25:08;;;;;;;8.63;2.70;;;24.30;99.90;;;;;;5113119;28;20030;-75
2023/04/25 10:27:35;;;;;;;10.43;2.55;;;24.60;99.90;;;;;;5112762;28;20099;-75
2023/04/25 10:30:10;;;;;;;8.85;2.70;;;25.00;99.90;;;;;;5111438;28;20199;-77
2023/04/25 10:32:45;;;;;;;12.23;2.60;;;25.30;99.90;;;;;;5112735;28;20023;-77
2023/04/25 10:35:12;;;;;;;9.43;2.70;;;25.00;99.90;;;;;;5113178;28;20030;-74
2023/04/25 10:37:39;;;;;;;11.85;3.00;;;24.90;99.90;;;;;;5110892;28;20428;-75
2023/04/25 10:40:12;;;;;;;10.10;3.13;;;24.70;99.90;;;;;;5112911;28;20453;-75
2023/04/25 10:42:38;;;;;;;7.72;2.47;;;24.70;99.90;;;;;;5112602;28;20035;-75
2023/04/25 10:45:07;;;;;;;10.10;2.20;;;24.80;99.90;;;;;;5112450;28;20479;-74
2023/04/25 10:47:37;;;;;;;10.93;2.83;;;24.70;99.90;;;;;;5112457;28;20020;-76
2023/04/25 10:50:08;;;;;;;12.45;2.90;;;24.30;99.90;;;;;;5112265;28;20019;-76
2023/04/25 10:52:34;;;;;;;9.52;2.40;;;24.10;99.90;;;;;;5112055;28;20024;-77
2023/04/25 10:55:03;;;;;;;11.25;2.55;;;24.30;99.90;;;;;;5112052;28;20028;-76
2023/04/25 10:57:46;;;;;;;6.97;2.67;;;24.30;99.90;;;;;;5112053;28;20035;-75
2023/04/25 11:00:21;;;;;;;7.82;2.50;;;24.50;99.90;;;;;;5112197;28;20167;-75
2023/04/25 11:02:53;;;;;;;7.05;2.20;;;24.90;99.90;;;;;;5112158;28;20089;-75
2023/04/25 11:05:23;;;;;;;11.23;2.63;;;24.90;99.90;;;;;;5112142;28;20160;-76
2023/04/25 11:07:59;;;;;;;14.15;3.60;;;24.30;99.90;;;;;;5112279;28;20103;-75
2023/04/25 11:10:30;;;;;;;10.73;2.97;;;24.70;99.90;;;;;;5112353;28;20027;-74
2023/04/25 11:12:57;;;;;;;13.68;3.97;;;24.70;99.90;;;;;;5112453;28;20035;-75
2023/04/25 11:15:23;;;;;;;13.27;3.25;;;24.70;99.90;;;;;;5111742;28;20076;-74
2023/04/25 11:17:52;;;;;;;10.90;2.75;;;25.30;99.90;;;;;;5111986;28;20040;-74
2023/04/25 11:20:18;;;;;;;13.57;3.95;;;25.10;99.90;;;;;;5111711;28;20020;-75
2023/04/25 11:22:45;;;;;;;11.18;4.03;;;25.00;99.90;;;;;;5111687;28;20443;-74
2023/04/25 11:25:13;;;;;;;23.98;3.90;;;25.30;99.90;;;;;;5116329;28;20092;-71
2023/04/25 11:27:53;;;;;;;19.13;3.90;;;25.40;99.90;;;;;;5110922;28;20020;-74
2023/04/25 11:30:20;;;;;;;13.32;4.20;;;25.30;99.90;;;;;;5111452;28;20114;-74
2023/04/25 11:32:47;;;;;;;16.08;4.10;;;25.30;99.90;;;;;;5111224;27;20031;-75
2023/04/25 11:35:15;;;;;;;15.43;3.97;;;25.20;99.90;;;;;;5111345;28;20035;-74
2023/04/25 11:37:43;;;;;;;17.23;3.95;;;25.40;99.90;;;;;;5109812;28;20080;-75
2023/04/25 11:40:11;;;;;;;18.20;4.05;;;25.60;99.90;;;;;;5111394;28;20027;-75
2023/04/25 11:42:38;;;;;;;14.98;4.00;;;25.70;99.90;;;;;;5111120;28;20063;-75
2023/04/25 11:45:05;;;;;;;17.52;4.50;;;26.00;99.90;;;;;;5111744;28;20051;-74
2023/04/25 11:47:32;;;;;;;15.95;4.13;;;25.70;99.90;;;;;;5111164;28;20035;-75
2023/04/25 11:49:59;;;;;;;11.60;3.63;;;25.70;99.90;;;;;;5111166;28;20039;-75
2023/04/25 11:52:46;;;;;;;16.33;3.72;;;25.10;99.90;;;;;;5111084;28;20031;-75
2023/04/25 11:55:17;;;;;;;14.20;3.60;;;25.00;99.90;;;;;;5109447;28;20431;-75
2023/04/25 11:57:46;;;;;;;14.23;3.72;;;24.80;99.90;;;;;;5111072;28;20478;-76
2023/04/25 12:00:16;;;;;;;17.88;3.90;;;24.90;99.90;;;;;;5111109;28;20066;-74
2023/04/25 12:02:47;;;;;;;10.27;3.35;;;25.10;99.90;;;;;;5111275;28;20109;-75
2023/04/25 12:05:18;;;;;;;14.40;3.85;;;25.00;99.90;;;;;;5110918;28;20084;-76
2023/04/25 12:07:45;;;;;;;10.07;2.63;;;25.00;99.90;;;;;;5110632;28;20046;-75
2023/04/25 12:10:17;;;;;;;13.63;3.20;;;25.00;99.90;;;;;;5110427;28;20130;-76
2023/04/25 12:12:45;;;;;;;15.88;3.03;;;25.20;99.90;;;;;;5111049;28;20047;-76
2023/04/25 12:15:19;;;;;;;13.57;3.13;;;25.10;99.90;;;;;;5111193;28;20031;-77
2023/04/25 12:17:49;;;;;;;11.63;3.08;;;25.50;99.90;;;;;;5110636;28;20035;-77
2023/04/25 12:20:19;;;;;;;13.23;3.03;;;25.40;99.90;;;;;;5111067;27;20467;-77
2023/04/25 12:22:48;;;;;;;14.65;3.20;;;25.20;99.90;;;;;;5110668;28;20050;-78
2023/04/25 12:25:38;;;;;;;13.93;2.78;;;25.40;99.90;;;;;;5110548;28;20084;-77
2023/04/25 12:28:20;;;;;;;11.57;2.72;;;24.90;99.90;;;;;;5110937;28;20054;-76
2023/04/25 12:31:04;;;;;;;15.27;3.05;;;24.80;99.90;;;;;;5110578;28;20031;-78
2023/04/25 12:33:37;;;;;;;13.05;2.97;;;25.10;99.90;;;;;;5110550;28;20469;-78
2023/04/25 12:36:12;;;;;;;12.18;3.17;;;25.00;99.90;;;;;;5110688;28;20024;-77
2023/04/25 12:38:40;;;;;;;16.85;3.60;;;24.50;99.90;;;;;;5114263;28;20036;-78
2023/04/25 12:41:07;;;;;;;15.98;3.08;;;24.40;99.90;;;;;;5117231;27;20031;-79
2023/04/25 12:43:33;;;;;;;;;;;24.60;99.90;;;;;;5117922;27;20315;-79